createdAt,value
2023-03-15T00:03:56.105Z,99.90
2023-03-15T00:10:46.014Z,99.90
2023-03-15T00:17:28.433Z,99.90
2023-03-15T00:24:11.543Z,99.90
2023-03-15T00:31:23.469Z,99.90
2023-03-15T00:38:07.846Z,99.90
2023-03-15T00:44:50.793Z,99.90
2023-03-15T00:51:33.749Z,99.90
2023-03-15T00:58:16.315Z,99.90
2023-03-15T01:04:58.760Z,99.90
2023-03-15T01:11:41.253Z,99.90
2023-03-15T01:18:23.701Z,99.90
2023-03-15T01:25:06.540Z,99.90
2023-03-15T01:31:48.903Z,99.90
2023-03-15T01:38:32.962Z,99.90
2023-03-15T01:45:53.024Z,99.90
2023-03-15T01:52:41.324Z,99.90
2023-03-15T01:59:34.705Z,99.90
2023-03-15T02:06:19.925Z,99.90
2023-03-15T02:13:12.305Z,99.90
2023-03-15T02:20:16.232Z,99.90
2023-03-15T02:26:58.824Z,99.90
2023-03-15T02:33:45.234Z,99.90
2023-03-15T02:40:29.158Z,99.90
2023-03-15T02:47:20.246Z,99.90
2023-03-15T02:54:02.541Z,99.90
2023-03-15T03:00:44.847Z,99.90
2023-03-15T03:07:27.251Z,99.90
2023-03-15T03:14:15.801Z,99.90
2023-03-15T03:20:59.466Z,99.90
2023-03-15T03:27:42.379Z,99.90
2023-03-15T03:34:26.415Z,99.90
2023-03-15T03:41:12.827Z,99.90
2023-03-15T03:47:55.635Z,99.90
2023-03-15T03:54:38.332Z,99.90
2023-03-15T04:01:22.106Z,99.90
2023-03-15T04:08:07.136Z,99.90
2023-03-15T04:14:54.256Z,99.90
2023-03-15T04:21:38.934Z,99.90
2023-03-15T04:28:38.011Z,99.90
2023-03-15T04:35:39.127Z,99.90
2023-03-15T04:42:56.880Z,99.90
2023-03-15T04:49:57.907Z,99.90
2023-03-15T04:56:47.960Z,99.90
2023-03-15T05:03:57.668Z,99.90
2023-03-15T05:10:51.918Z,99.90
2023-03-15T05:18:00.461Z,99.90
2023-03-15T05:24:56.121Z,99.90
2023-03-15T05:32:05.094Z,99.90
2023-03-15T05:39:04.400Z,99.90
2023-03-15T05:46:11.589Z,99.90
2023-03-15T05:53:14.264Z,99.90
2023-03-15T06:00:11.308Z,99.90
2023-03-15T06:06:56.440Z,99.90
2023-03-15T06:13:39.195Z,99.90
2023-03-15T06:20:29.156Z,99.90
2023-03-15T06:27:15.928Z,99.90
2023-03-15T06:33:58.542Z,99.90
2023-03-15T06:40:41.040Z,99.90
2023-03-15T06:47:23.681Z,99.90
2023-03-15T06:54:06.296Z,99.90
2023-03-15T07:00:50.785Z,93.00
2023-03-15T07:07:33.081Z,90.00
2023-03-15T07:14:15.374Z,87.50
2023-03-15T07:21:03.206Z,82.20
2023-03-15T07:27:45.595Z,83.50
2023-03-15T07:34:28.106Z,81.30
2023-03-15T07:41:11.901Z,77.80
2023-03-15T07:48:00.706Z,77.50
2023-03-15T07:54:42.998Z,75.50
2023-03-15T08:01:25.647Z,75.10
2023-03-15T08:08:08.048Z,74.20
2023-03-15T08:14:51.397Z,76.50
2023-03-15T08:21:33.715Z,75.10
2023-03-15T08:28:16.145Z,74.70
2023-03-15T08:34:58.894Z,73.40
2023-03-15T08:41:41.665Z,76.70
2023-03-15T08:48:24.007Z,73.40
2023-03-15T08:55:07.245Z,72.50
2023-03-15T09:01:49.716Z,71.50
2023-03-15T09:08:33.464Z,71.40
2023-03-15T09:15:16.832Z,68.90
2023-03-15T09:22:10.781Z,66.40
2023-03-15T09:29:01.506Z,67.50
2023-03-15T09:35:43.855Z,69.80
2023-03-15T09:42:56.968Z,69.30
2023-03-15T09:49:52.129Z,73.40
2023-03-15T09:56:39.260Z,71.80
2023-03-15T10:03:42.462Z,74.20
2023-03-15T10:10:32.785Z,74.00
2023-03-15T10:17:37.627Z,71.40
2023-03-15T10:24:37.686Z,73.60
2023-03-15T10:31:36.925Z,72.60
2023-03-15T10:38:27.699Z,73.00
2023-03-15T10:45:23.001Z,75.20
2023-03-15T10:52:05.976Z,73.40
2023-03-15T10:59:05.572Z,72.20
2023-03-15T11:05:54.650Z,70.40
2023-03-15T11:12:37.059Z,69.40
2023-03-15T11:19:22.603Z,72.90
2023-03-15T11:26:06.204Z,74.90
2023-03-15T11:32:49.102Z,76.80
2023-03-15T11:40:10.577Z,79.60
2023-03-15T11:47:01.083Z,81.10
2023-03-15T11:53:55.054Z,78.70
2023-03-15T12:00:37.733Z,73.40
2023-03-15T12:07:20.031Z,73.60
2023-03-15T12:14:02.260Z,76.70
2023-03-15T12:21:11.943Z,78.70
2023-03-15T12:27:57.195Z,77.10
2023-03-15T12:34:54.385Z,79.50
2023-03-15T12:41:43.550Z,82.10
2023-03-15T12:48:27.017Z,81.10
2023-03-15T12:55:16.186Z,84.90
2023-03-15T13:02:00.776Z,97.40
2023-03-15T13:09:20.219Z,99.90
2023-03-15T13:16:15.356Z,99.90
2023-03-15T13:23:14.985Z,99.90
2023-03-15T13:29:57.656Z,99.90
2023-03-15T13:36:57.424Z,99.90
2023-03-15T13:43:39.981Z,99.90
2023-03-15T13:50:23.795Z,99.90
2023-03-15T13:57:07.352Z,98.90
2023-03-15T14:04:01.647Z,99.90
2023-03-15T14:10:44.010Z,99.90
2023-03-15T14:17:31.303Z,99.90
2023-03-15T14:24:34.485Z,99.90
2023-03-15T14:31:32.261Z,99.90
2023-03-15T14:38:18.711Z,99.90
2023-03-15T14:45:01.032Z,99.90
2023-03-15T14:51:43.578Z,99.90
2023-03-15T14:58:25.906Z,99.90
2023-03-15T15:05:40.828Z,99.90
2023-03-15T15:12:23.104Z,99.90
2023-03-15T15:19:05.849Z,99.90
2023-03-15T15:25:50.115Z,99.90
2023-03-15T15:32:33.864Z,99.90
2023-03-15T15:39:26.112Z,99.90
2023-03-15T15:46:12.498Z,99.90
2023-03-15T15:52:55.244Z,99.90
2023-03-15T15:59:37.532Z,99.90
2023-03-15T16:06:21.132Z,99.90
2023-03-15T16:13:04.686Z,99.90
2023-03-15T16:19:47.034Z,99.90
2023-03-15T16:26:29.378Z,99.90
2023-03-15T16:33:17.700Z,99.90
2023-03-15T16:40:01.571Z,99.90
2023-03-15T16:46:44.506Z,99.90
2023-03-15T16:53:26.933Z,99.90
2023-03-15T17:00:16.953Z,99.90
2023-03-15T17:06:59.315Z,99.90
2023-03-15T17:13:42.235Z,99.90
2023-03-15T17:20:29.344Z,99.90
2023-03-15T17:27:22.895Z,99.90
2023-03-15T17:34:05.415Z,99.90
2023-03-15T17:40:48.674Z,99.90
2023-03-15T17:47:32.375Z,99.90
2023-03-15T17:54:17.668Z,99.90
2023-03-15T18:01:00.452Z,99.90
2023-03-15T18:07:57.811Z,99.90
2023-03-15T18:14:40.723Z,99.90
2023-03-15T18:21:26.228Z,99.90
2023-03-15T18:28:08.858Z,99.90
2023-03-15T18:41:33.733Z,99.90
2023-03-15T18:48:16.261Z,99.90
2023-03-15T18:54:59.053Z,99.90
2023-03-15T19:01:42.117Z,99.90
2023-03-15T19:08:24.452Z,99.90
2023-03-15T19:15:11.666Z,99.90
2023-03-15T19:21:55.260Z,99.90
2023-03-15T19:28:37.565Z,99.90
2023-03-15T19:35:20.773Z,99.90
2023-03-15T19:42:04.223Z,99.90
2023-03-15T19:48:46.536Z,99.90
2023-03-15T19:55:31.503Z,99.90
2023-03-15T20:02:14.195Z,99.90
2023-03-15T20:08:56.524Z,99.90
2023-03-15T20:15:38.885Z,99.90
2023-03-15T20:22:21.453Z,99.90
2023-03-15T20:29:03.896Z,99.90
2023-03-15T20:35:46.265Z,99.90
2023-03-15T20:42:28.584Z,99.90
2023-03-15T20:49:10.917Z,99.90
2023-03-15T20:55:53.347Z,99.90
2023-03-15T21:02:35.664Z,99.90
2023-03-15T21:09:18.076Z,99.90
2023-03-15T21:16:02.842Z,99.90
2023-03-15T21:22:45.224Z,99.90
2023-03-15T21:29:27.528Z,99.90
2023-03-15T21:36:09.861Z,99.90
2023-03-15T21:42:52.145Z,99.90
2023-03-15T21:49:34.709Z,99.90
2023-03-15T21:56:17.292Z,99.90
2023-03-15T22:02:59.628Z,99.90
2023-03-15T22:09:43.186Z,99.90
2023-03-15T22:16:25.638Z,99.90
2023-03-15T22:23:08.171Z,99.90
2023-03-15T22:29:52.163Z,99.90
2023-03-15T22:36:34.538Z,99.90
2023-03-15T22:43:17.754Z,99.90
2023-03-15T22:50:00.152Z,99.90
2023-03-15T22:56:42.593Z,99.90
2023-03-15T23:03:26.273Z,99.90
2023-03-15T23:10:09.365Z,99.90
2023-03-15T23:16:52.213Z,99.90
2023-03-15T23:23:36.807Z,99.90
2023-03-15T23:30:19.235Z,99.90
2023-03-15T23:37:01.542Z,99.90
2023-03-15T23:43:43.797Z,99.90
2023-03-15T23:50:27.091Z,99.90
2023-03-15T23:57:12.250Z,99.90
